Time;durP1;ratioP1;P1;durP2;ratioP2;P2;SDS_P1;SDS_P2;PMS_P1;PMS_P2;Temp;Humidity;BMP_temperature;BMP_pressure;BME280_temperature;BME280_humidity;BME280_pressure;Samples;Min_cycle;Max_cycle;Signal;HPM_P1;HPM_P2
2022/08/13 00:01:01;;;;;;;;;;;22.10;93.50;;;;;;5083846;28;19924;-91
2022/08/13 00:03:32;;;;;;;;;;;22.10;93.60;;;;;;5083385;28;19923;-90
2022/08/13 00:09:22;;;;;;;;;;;22.00;93.70;;;;;;4792893;28;9999699;-91
2022/08/13 00:14:59;;;;;;;;;;;22.00;94.10;;;;;;5121573;28;19919;-91
2022/08/13 00:17:30;;;;;;;;;;;22.00;94.00;;;;;;5084823;28;19947;-91
2022/08/13 00:20:19;;;;;;;;;;;21.90;93.90;;;;;;5043649;28;19931;-90
2022/08/13 00:22:48;;;;;;;;;;;21.90;94.30;;;;;;5059166;28;19928;-91
2022/08/13 00:25:28;;;;;;;;;;;21.90;94.00;;;;;;5060622;28;20289;-90
2022/08/13 00:28:14;;;;;;;;;;;21.80;94.00;;;;;;5072100;28;19925;-91
2022/08/13 00:30:43;;;;;;;;;;;21.80;93.80;;;;;;5026396;28;19925;-91
2022/08/13 00:33:15;;;;;;;;;;;21.70;94.20;;;;;;5043829;28;19925;-90
2022/08/13 00:35:47;;;;;;;;;;;21.70;94.30;;;;;;5042760;28;20416;-90
2022/08/13 00:38:22;;;;;;;;;;;19.80;93.20;;;;;;5051743;28;19925;-90
2022/08/13 00:41:04;;;;;;;;;;;21.60;93.70;;;;;;5062426;28;19925;-90
2022/08/13 00:43:33;;;;;;;;;;;21.60;93.60;;;;;;5061042;28;19939;-90
2022/08/13 00:46:02;;;;;;;;;;;21.60;93.70;;;;;;5061219;28;19935;-91
2022/08/13 00:48:41;;;;;;;;;;;21.50;93.50;;;;;;5047475;28;19932;-90
2022/08/13 00:51:15;;;;;;;;;;;21.50;93.70;;;;;;5065880;28;20197;-91
2022/08/13 00:54:05;;;;;;;;;;;21.50;93.60;;;;;;5064954;28;19935;-91
2022/08/13 00:56:38;;;;;;;;;;;22.00;93.80;;;;;;5076035;28;19909;-90
2022/08/13 00:59:12;;;;;;;;;;;21.50;93.30;;;;;;5047637;28;19924;-90
2022/08/13 01:01:41;;;;;;;;;;;21.50;93.50;;;;;;5041789;28;19936;-91
2022/08/13 01:04:20;;;;;;;;;;;21.60;93.10;;;;;;5076391;28;19940;-90
2022/08/13 01:06:55;;;;;;;;;;;21.50;93.10;;;;;;5042384;28;19929;-90
2022/08/13 01:09:29;;;;;;;;;;;21.50;92.90;;;;;;5053996;28;19931;-90
2022/08/13 01:12:20;;;;;;;;;;;21.50;92.90;;;;;;5067215;28;19924;-90
2022/08/13 01:14:54;;;;;;;;;;;21.50;92.90;;;;;;5074453;28;19928;-89
2022/08/13 01:17:23;;;;;;;;;;;21.50;93.00;;;;;;5089837;28;19924;-90
2022/08/13 01:19:57;;;;;;;;;;;21.70;93.00;;;;;;5085633;28;19928;-90
2022/08/13 01:22:32;;;;;;;;;;;21.40;93.20;;;;;;5082005;28;19935;-90
2022/08/13 01:25:05;;;;;;;;;;;21.40;94.00;;;;;;5080051;28;19928;-91
2022/08/13 01:27:39;;;;;;;;;;;21.30;93.40;;;;;;5077691;28;19924;-90
2022/08/13 01:30:14;;;;;;;;;;;21.20;93.50;;;;;;5082280;28;19935;-91
2022/08/13 01:32:44;;;;;;;;;;;21.10;93.60;;;;;;5088600;28;19931;-91
2022/08/13 01:35:23;;;;;;;;;;;21.10;93.60;;;;;;5056907;28;19932;-91
2022/08/13 01:37:54;;;;;;;;;;;21.00;93.60;;;;;;5080304;28;19924;-91
2022/08/13 01:40:31;;;;;;;;;;;21.00;93.70;;;;;;5083301;28;19924;-90
2022/08/13 01:43:00;;;;;;;;;;;21.00;93.70;;;;;;5083284;28;19936;-91
2022/08/13 01:45:49;;;;;;;;;;;20.70;93.90;;;;;;5072219;28;19931;-92
2022/08/13 01:51:29;;;;;;;;;;;20.80;93.80;;;;;;5084238;28;19939;-89
2022/08/13 01:54:10;;;;;;;;;;;18.80;94.10;;;;;;5067957;28;20231;-91
2022/08/13 01:57:02;;;;;;;;;;;20.70;95.80;;;;;;5086123;28;19933;-90
2022/08/13 01:59:32;;;;;;;;;;;22.40;94.80;;;;;;5086750;28;19924;-91
2022/08/13 02:02:23;;;;;;;;;;;20.80;94.60;;;;;;5092426;28;19934;-91
2022/08/13 02:05:10;;;;;;;;;;;20.40;94.60;;;;;;5102168;28;19935;-90
2022/08/13 02:07:58;;;;;;;;;;;20.40;94.50;;;;;;5103740;28;19931;-90
2022/08/13 02:10:29;;;;;;;;;;;20.40;94.90;;;;;;5085402;28;19949;-91
2022/08/13 02:13:00;;;;;;;;;;;20.30;94.30;;;;;;5086104;28;19925;-91
2022/08/13 02:15:27;;;;;;;;;;;20.30;94.10;;;;;;5085238;28;19924;-91
2022/08/13 02:18:14;;;;;;;;;;;20.30;94.00;;;;;;5087471;28;19928;-91
2022/08/13 02:20:44;;;;;;;;;;;20.30;93.90;;;;;;5087644;28;19925;-90
2022/08/13 02:23:16;;;;;;;;;;;20.20;93.80;;;;;;5064545;28;19924;-91
2022/08/13 02:25:45;;;;;;;;;;;20.30;93.80;;;;;;5082451;28;19936;-91
2022/08/13 02:28:25;;;;;;;;;;;20.30;93.70;;;;;;5064843;28;19924;-91
2022/08/13 02:30:56;;;;;;;;;;;20.30;93.70;;;;;;5063553;28;19928;-90
2022/08/13 02:33:25;;;;;;;;;;;20.30;93.70;;;;;;5067460;28;20357;-91
2022/08/13 02:35:54;;;;;;;;;;;20.40;93.70;;;;;;5088077;28;20380;-91
2022/08/13 02:38:23;;;;;;;;;;;20.30;93.70;;;;;;5092514;28;19912;-90
2022/08/13 02:43:50;;;;;;;;;;;20.20;93.80;;;;;;5116544;28;19912;-91
2022/08/13 02:46:26;;;;;;;;;;;20.20;94.10;;;;;;5088909;28;19924;-90
2022/08/13 02:48:58;;;;;;;;;;;20.10;95.10;;;;;;5080639;28;20276;-90
2022/08/13 02:51:28;;;;;;;;;;;20.00;94.40;;;;;;5064347;28;19924;-90
2022/08/13 02:54:20;;;;;;;;;;;19.90;94.80;;;;;;5058046;28;19940;-91
2022/08/13 02:56:51;;;;;;;;;;;19.80;94.50;;;;;;5073143;28;20210;-89
2022/08/13 02:59:18;;;;;;;;;;;19.70;94.70;;;;;;5079692;28;19935;-90
2022/08/13 03:02:07;;;;;;;;;;;19.60;94.90;;;;;;5069821;28;19931;-90
2022/08/13 03:04:43;;;;;;;;;;;19.60;94.80;;;;;;5080817;28;19935;-90
2022/08/13 03:07:11;;;;;;;;;;;19.60;95.00;;;;;;5082950;28;19924;-90
2022/08/13 03:09:39;;;;;;;;;;;19.50;95.10;;;;;;5083656;28;19924;-91
2022/08/13 03:12:13;;;;;;;;;;;19.40;95.10;;;;;;5066989;28;19925;-90
2022/08/13 03:14:42;;;;;;;;;;;19.40;95.30;;;;;;5062604;28;19924;-90
2022/08/13 03:17:12;;;;;;;;;;;19.40;95.50;;;;;;5076369;28;20497;-90
2022/08/13 03:19:51;;;;;;;;;;;19.30;95.70;;;;;;5053946;28;19925;-90
2022/08/13 03:22:25;;;;;;;;;;;19.20;95.40;;;;;;5047262;28;19929;-89
2022/08/13 03:24:54;;;;;;;;;;;19.20;96.00;;;;;;5060197;28;19932;-90
2022/08/13 03:27:22;;;;;;;;;;;19.10;95.30;;;;;;5061216;28;19924;-90
2022/08/13 03:29:53;;;;;;;;;;;19.00;95.80;;;;;;5082293;28;19932;-91
2022/08/13 03:32:39;;;;;;;;;;;19.00;95.80;;;;;;5080361;28;19924;-90
2022/08/13 03:35:11;;;;;;;;;;;18.90;95.80;;;;;;5080324;28;19931;-91
2022/08/13 03:37:42;;;;;;;;;;;18.90;96.10;;;;;;5065233;28;20311;-90
2022/08/13 03:40:12;;;;;;;;;;;18.80;96.00;;;;;;5080862;28;19924;-90
2022/08/13 03:42:45;;;;;;;;;;;18.80;96.00;;;;;;5077623;28;19931;-91
2022/08/13 03:45:21;;;;;;;;;;;18.80;96.00;;;;;;5074721;28;19935;-91
2022/08/13 03:47:51;;;;;;;;;;;20.80;96.50;;;;;;5084709;28;19924;-90
2022/08/13 03:50:20;;;;;;;;;;;18.70;96.10;;;;;;5102285;28;20427;-91
2022/08/13 03:52:51;;;;;;;;;;;18.60;96.20;;;;;;5084947;28;19924;-90
2022/08/13 03:55:22;;;;;;;;;;;18.70;96.30;;;;;;5087318;28;19930;-90
2022/08/13 03:57:50;;;;;;;;;;;18.40;96.60;;;;;;5067843;28;19939;-90
2022/08/13 04:00:32;;;;;;;;;;;18.60;96.60;;;;;;5084651;28;19932;-90
2022/08/13 04:03:12;;;;;;;;;;;18.40;96.40;;;;;;5084744;28;19935;-91
2022/08/13 04:05:43;;;;;;;;;;;18.50;96.60;;;;;;5085356;28;19924;-90
2022/08/13 04:08:28;;;;;;;;;;;18.40;96.90;;;;;;5089656;28;19924;-89
2022/08/13 04:10:56;;;;;;;;;;;20.40;97.40;;;;;;5090971;28;19923;-90
2022/08/13 04:13:28;;;;;;;;;;;18.40;96.80;;;;;;5092239;28;19930;-90
2022/08/13 04:16:18;;;;;;;;;;;18.30;97.20;;;;;;5101838;28;19912;-89
2022/08/13 04:18:47;;;;;;;;;;;17.60;96.80;;;;;;5084067;28;19934;-91
2022/08/13 04:21:17;;;;;;;;;;;18.10;97.20;;;;;;5099562;28;19924;-91
2022/08/13 04:23:50;;;;;;;;;;;18.30;97.10;;;;;;5082097;28;20168;-89
2022/08/13 04:26:23;;;;;;;;;;;18.20;97.20;;;;;;5074269;28;19928;-91
2022/08/13 04:29:00;;;;;;;;;;;18.20;97.10;;;;;;5086828;28;19924;-90
2022/08/13 04:31:30;;;;;;;;;;;18.30;97.30;;;;;;5090721;28;19991;-90
2022/08/13 04:34:17;;;;;;;;;;;18.30;97.20;;;;;;5068106;28;19932;-90
2022/08/13 04:37:07;;;;;;;;;;;17.50;96.90;;;;;;5067065;28;20015;-90
2022/08/13 04:39:39;;;;;;;;;;;18.30;97.00;;;;;;5080890;28;19947;-90
2022/08/13 04:42:50;;;;;;;;;;;18.30;97.10;;;;;;5086071;28;20400;-90
2022/08/13 04:45:20;;;;;;;;;;;18.30;97.20;;;;;;5076582;28;19929;-91
2022/08/13 04:47:58;;;;;;;;;;;18.30;97.40;;;;;;5080372;28;19943;-90
2022/08/13 04:50:31;;;;;;;;;;;18.20;97.40;;;;;;5064604;28;20023;-89
2022/08/13 04:53:06;;;;;;;;;;;17.90;97.20;;;;;;5073374;28;19954;-90
2022/08/13 04:55:37;;;;;;;;;;;18.10;97.60;;;;;;5069300;28;20380;-90
2022/08/13 04:58:29;;;;;;;;;;;18.10;97.90;;;;;;5057384;28;19912;-90
2022/08/13 05:00:58;;;;;;;;;;;17.60;97.50;;;;;;5054251;28;19939;-91
2022/08/13 05:03:29;;;;;;;;;;;18.00;97.90;;;;;;5077048;28;19924;-90
2022/08/13 05:06:19;;;;;;;;;;;17.90;98.00;;;;;;5072642;28;19925;-90
2022/08/13 05:08:58;;;;;;;;;;;16.30;97.60;;;;;;5062656;28;20399;-90
2022/08/13 05:11:35;;;;;;;;;;;16.40;97.60;;;;;;5088623;28;19928;-91
2022/08/13 05:14:04;;;;;;;;;;;18.00;97.90;;;;;;5055654;28;19925;-91
2022/08/13 05:16:39;;;;;;;;;;;17.90;97.90;;;;;;5063803;28;19912;-91
2022/08/13 05:19:08;;;;;;;;;;;18.00;98.50;;;;;;5071508;28;20248;-89
2022/08/13 05:21:37;;;;;;;;;;;18.10;99.30;;;;;;5048107;28;19936;-91
2022/08/13 05:24:26;;;;;;;;;;;18.00;98.50;;;;;;5065694;28;19932;-90
2022/08/13 05:27:16;;;;;;;;;;;17.90;98.80;;;;;;5068821;28;19935;-91
2022/08/13 05:29:48;;;;;;;;;;;17.20;98.10;;;;;;5069724;28;19928;-90
2022/08/13 05:32:38;;;;;;;;;;;19.40;99.00;;;;;;5101518;28;19928;-89
2022/08/13 05:35:20;;;;;;;;;;;18.10;98.30;;;;;;5103308;28;19932;-91
2022/08/13 05:38:09;;;;;;;;;;;18.20;98.10;;;;;;5064680;28;20025;-91
2022/08/13 05:40:53;;;;;;;;;;;18.30;98.00;;;;;;5052321;28;19932;-90
2022/08/13 05:43:23;;;;;;;;;;;18.40;97.80;;;;;;5050664;28;19925;-91
2022/08/13 05:46:00;;;;;;;;;;;18.50;97.90;;;;;;5099440;28;19928;-90
2022/08/13 05:48:34;;;;;;;;;;;18.50;97.70;;;;;;5087632;28;19930;-90
2022/08/13 05:51:08;;;;;;;;;;;18.60;97.70;;;;;;5070695;28;19931;-90
2022/08/13 05:53:42;;;;;;;;;;;18.60;97.50;;;;;;5105463;28;19928;-90
2022/08/13 05:56:36;;;;;;;;;;;18.70;97.40;;;;;;5081863;28;20210;-91
2022/08/13 05:59:04;;;;;;;;;;;18.80;97.40;;;;;;5034387;28;19925;-91
2022/08/13 06:04:29;;;;;;;;;;;19.00;97.90;;;;;;5063831;28;19924;-91
2022/08/13 06:07:06;;;;;;;;;;;19.10;98.70;;;;;;5049298;28;19936;-91
2022/08/13 06:09:34;;;;;;;;;;;19.20;97.80;;;;;;5069445;28;19932;-90
2022/08/13 06:12:03;;;;;;;;;;;19.20;97.30;;;;;;5082419;28;20151;-90
2022/08/13 06:14:54;;;;;;;;;;;16.60;96.90;;;;;;5061308;28;19928;-90
2022/08/13 06:17:24;;;;;;;;;;;19.40;97.30;;;;;;5059195;28;19924;-91
2022/08/13 06:20:03;;;;;;;;;;;19.40;97.30;;;;;;5063463;28;20387;-90
2022/08/13 06:22:33;;;;;;;;;;;19.60;97.80;;;;;;5077254;28;19912;-89
2022/08/13 06:25:05;;;;;;;;;;;19.60;97.30;;;;;;5064270;28;19947;-90
2022/08/13 06:27:38;;;;;;;;;;;19.70;97.40;;;;;;5031237;28;19925;-90
2022/08/13 06:30:25;;;;;;;;;;;19.70;97.70;;;;;;5048227;28;19931;-91
2022/08/13 06:33:02;;;;;;;;;;;19.80;97.70;;;;;;5060844;28;19932;-90
2022/08/13 06:35:55;;;;;;;;;;;19.80;97.70;;;;;;5066118;28;19928;-91
2022/08/13 06:38:28;;;;;;;;;;;19.90;97.40;;;;;;5077077;28;19928;-91
2022/08/13 06:41:06;;;;;;;;;;;20.00;97.50;;;;;;5072775;28;19912;-90
2022/08/13 06:43:36;;;;;;;;;;;20.10;97.70;;;;;;5071026;28;19924;-90
2022/08/13 06:46:24;;;;;;;;;;;20.10;97.60;;;;;;5077137;28;19924;-90
2022/08/13 06:48:57;;;;;;;;;;;20.40;97.30;;;;;;5070095;28;19924;-91
2022/08/13 06:51:31;;;;;;;;;;;20.90;98.10;;;;;;5068071;28;19928;-91
2022/08/13 06:54:08;;;;;;;;;;;20.20;97.80;;;;;;5088477;28;19931;-90
2022/08/13 06:56:53;;;;;;;;;;;18.20;97.50;;;;;;5080234;28;19939;-90
2022/08/13 06:59:42;;;;;;;;;;;18.90;97.50;;;;;;5077595;28;19928;-89
2022/08/13 07:02:34;;;;;;;;;;;21.00;97.50;;;;;;5097203;28;20370;-91
2022/08/13 07:05:03;;;;;;;;;;;20.60;97.00;;;;;;5079285;28;19992;-91
2022/08/13 07:07:42;;;;;;;;;;;20.70;96.90;;;;;;5066272;28;19924;-90
2022/08/13 07:10:14;;;;;;;;;;;20.90;96.80;;;;;;5060478;28;19956;-90
2022/08/13 07:12:43;;;;;;;;;;;21.00;97.20;;;;;;5062926;28;19924;-90
2022/08/13 07:15:14;;;;;;;;;;;20.80;98.30;;;;;;5084374;28;19924;-91
2022/08/13 07:18:06;;;;;;;;;;;20.20;96.60;;;;;;5061565;28;19924;-91
2022/08/13 07:20:35;;;;;;;;;;;20.80;97.30;;;;;;5058301;28;19934;-91
2022/08/13 07:23:07;;;;;;;;;;;21.20;97.70;;;;;;5069509;28;19924;-90
2022/08/13 07:25:55;;;;;;;;;;;21.50;96.60;;;;;;5054630;28;19924;-91
2022/08/13 07:28:27;;;;;;;;;;;21.30;96.60;;;;;;5048820;28;19924;-89
2022/08/13 07:31:17;;;;;;;;;;;20.80;96.90;;;;;;5048384;28;19939;-91
2022/08/13 07:33:51;;;;;;;;;;;22.60;97.40;;;;;;5061927;28;19924;-91
2022/08/13 07:36:29;;;;;;;;;;;19.60;96.40;;;;;;5043878;28;20263;-91
2022/08/13 07:39:00;;;;;;;;;;;21.00;95.90;;;;;;5065630;28;19928;-90
2022/08/13 07:41:45;;;;;;;;;;;22.00;96.80;;;;;;5079640;28;19924;-91
2022/08/13 07:44:31;;;;;;;;;;;21.50;96.20;;;;;;5061244;28;20288;-92
2022/08/13 07:47:11;;;;;;;;;;;21.90;96.60;;;;;;5061221;28;19924;-91
2022/08/13 07:49:44;;;;;;;;;;;22.30;96.40;;;;;;5074661;28;19924;-90
2022/08/13 07:52:13;;;;;;;;;;;22.50;96.10;;;;;;5091762;28;19919;-91
2022/08/13 07:54:44;;;;;;;;;;;22.30;95.40;;;;;;5078985;28;19926;-91
2022/08/13 07:57:19;;;;;;;;;;;22.30;95.50;;;;;;5057288;28;19924;-92
2022/08/13 07:59:54;;;;;;;;;;;23.20;95.30;;;;;;5071793;28;19924;-92
2022/08/13 08:02:42;;;;;;;;;;;22.50;94.40;;;;;;5055878;28;19928;-92
2022/08/13 08:05:14;;;;;;;;;;;22.80;94.00;;;;;;5057347;28;19924;-91
2022/08/13 08:07:51;;;;;;;;;;;24.60;94.90;;;;;;5066536;28;19927;-90
2022/08/13 08:10:36;;;;;;;;;;;22.90;93.90;;;;;;5097117;28;19928;-91
2022/08/13 08:13:04;;;;;;;;;;;23.10;93.60;;;;;;5078721;28;19924;-91
2022/08/13 08:15:35;;;;;;;;;;;23.10;93.40;;;;;;5102018;28;19928;-91
2022/08/13 08:18:22;;;;;;;;;;;23.20;93.50;;;;;;5059347;28;19931;-91
2022/08/13 08:21:07;;;;;;;;;;;23.30;93.10;;;;;;5060677;28;19924;-92
2022/08/13 08:23:59;;;;;;;;;;;23.40;93.00;;;;;;5063340;28;19924;-91
2022/08/13 08:26:31;;;;;;;;;;;23.60;92.60;;;;;;5049378;28;19928;-91
2022/08/13 08:29:00;;;;;;;;;;;23.60;92.60;;;;;;5057757;28;20006;-91
2022/08/13 08:31:31;;;;;;;;;;;23.70;92.20;;;;;;5078053;28;19924;-90
2022/08/13 08:34:18;;;;;;;;;;;23.80;92.70;;;;;;5065727;28;19943;-90
2022/08/13 08:36:47;;;;;;;;;;;23.80;92.30;;;;;;5077123;28;19928;-91
2022/08/13 08:44:54;;;;;;;;;;;24.10;91.40;;;;;;5074550;28;19927;-91
2022/08/13 08:47:30;;;;;;;;;;;24.20;91.90;;;;;;5081657;28;19927;-91
2022/08/13 08:50:17;;;;;;;;;;;24.30;91.50;;;;;;5108399;28;19924;-91
2022/08/13 08:56:04;;;;;;;;;;;24.50;91.30;;;;;;5093972;28;19938;-93
2022/08/13 08:58:41;;;;;;;;;;;24.60;90.90;;;;;;5052139;28;19931;-91
2022/08/13 09:01:13;;;;;;;;;;;24.70;90.90;;;;;;5063323;28;19924;-91
2022/08/13 09:03:48;;;;;;;;;;;24.80;90.80;;;;;;5061120;28;19924;-91
2022/08/13 09:06:26;;;;;;;;;;;24.90;90.40;;;;;;5060739;28;19928;-92
2022/08/13 09:09:15;;;;;;;;;;;25.00;90.00;;;;;;5059527;28;19931;-91
2022/08/13 09:11:52;;;;;;;;;;;25.10;89.70;;;;;;5044635;28;19931;-91
2022/08/13 09:14:25;;;;;;;;;;;25.20;89.10;;;;;;5079525;28;19932;-91
2022/08/13 09:16:58;;;;;;;;;;;25.20;89.50;;;;;;5098855;28;19928;-92
2022/08/13 09:19:27;;;;;;;;;;;25.30;88.70;;;;;;5082022;28;19927;-92
2022/08/13 09:22:18;;;;;;;;;;;25.40;88.20;;;;;;5066493;28;19924;-92
2022/08/13 09:24:56;;;;;;;;;;;25.50;88.20;;;;;;5096029;28;19927;-91
2022/08/13 09:27:30;;;;;;;;;;;25.60;88.60;;;;;;5112446;28;20509;-93
2022/08/13 09:30:18;;;;;;;;;;;25.70;87.70;;;;;;5081528;28;19928;-92
2022/08/13 09:32:52;;;;;;;;;;;25.80;87.80;;;;;;5066058;28;19924;-91
2022/08/13 09:35:20;;;;;;;;;;;25.90;86.60;;;;;;5062980;28;19924;-93
2022/08/13 09:37:50;;;;;;;;;;;26.10;87.20;;;;;;5095916;28;19930;-92
2022/08/13 09:40:27;;;;;;;;;;;26.10;86.60;;;;;;5080102;28;19924;-92
2022/08/13 09:43:21;;;;;;;;;;;26.30;84.10;;;;;;5097591;28;19924;-91
2022/08/13 09:46:09;;;;;;;;;;;26.40;84.20;;;;;;5084341;28;19924;-92
2022/08/13 09:48:37;;;;;;;;;;;26.70;85.60;;;;;;5080840;28;19927;-93
2022/08/13 09:51:13;;;;;;;;;;;26.70;83.50;;;;;;5082321;28;19943;-93
2022/08/13 09:54:05;;;;;;;;;;;26.80;83.70;;;;;;5067102;28;20332;-93
2022/08/13 09:56:37;;;;;;;;;;;26.90;82.10;;;;;;5067978;28;19933;-92
2022/08/13 09:59:08;;;;;;;;;;;27.00;82.30;;;;;;5043860;28;20299;-93
2022/08/13 10:01:43;;;;;;;;;;;27.10;82.10;;;;;;5044155;28;20760;-91
2022/08/13 10:04:26;;;;;;;;;;;27.20;82.30;;;;;;5074888;27;19924;-92
2022/08/13 10:06:57;;;;;;;;;;;27.20;81.70;;;;;;5099858;27;19942;-93
2022/08/13 10:09:28;;;;;;;;;;;27.30;81.30;;;;;;5070175;28;19927;-92
2022/08/13 10:12:01;;;;;;;;;;;27.40;80.40;;;;;;5078389;28;19931;-92
2022/08/13 10:14:47;;;;;;;;;;;27.50;79.10;;;;;;5079209;28;19931;-92
2022/08/13 10:17:27;;;;;;;;;;;27.70;78.50;;;;;;5058774;28;20433;-92
2022/08/13 10:20:18;;;;;;;;;;;27.80;77.10;;;;;;5061968;28;19951;-92
2022/08/13 10:22:46;;;;;;;;;;;27.90;77.30;;;;;;5059684;28;19935;-92
2022/08/13 10:25:15;;;;;;;;;;;28.00;77.60;;;;;;5044015;28;19924;-92
2022/08/13 10:27:46;;;;;;;;;;;28.20;78.10;;;;;;5079051;28;19924;-92
2022/08/13 10:30:17;;;;;;;;;;;28.20;77.70;;;;;;5081156;28;19924;-92
2022/08/13 10:33:04;;;;;;;;;;;28.30;75.00;;;;;;5073925;28;19928;-91
2022/08/13 10:35:32;;;;;;;;;;;28.50;75.50;;;;;;5065433;28;19939;-92
2022/08/13 10:38:12;;;;;;;;;;;28.60;75.60;;;;;;5081078;28;19924;-93
2022/08/13 10:40:40;;;;;;;;;;;28.70;74.00;;;;;;5079714;28;19931;-91
2022/08/13 10:43:07;;;;;;;;;;;28.70;73.10;;;;;;5065312;28;19928;-93
2022/08/13 10:45:50;;;;;;;;;;;28.80;74.10;;;;;;5069736;28;19924;-92
2022/08/13 10:48:18;;;;;;;;;;;28.90;72.40;;;;;;5085638;28;19947;-92
2022/08/13 10:50:46;;;;;;;;;;;29.10;69.70;;;;;;5043147;28;19924;-92
2022/08/13 10:56:10;;;;;;;;;;;29.40;69.20;;;;;;5070448;28;19924;-92
2022/08/13 10:58:39;;;;;;;;;;;29.60;69.90;;;;;;5098986;28;20302;-92
2022/08/13 11:01:22;;;;;;;;;;;29.70;68.90;;;;;;5079726;28;19935;-91
2022/08/13 11:03:55;;;;;;;;;;;29.80;68.00;;;;;;5077874;28;19931;-91
2022/08/13 11:06:33;;;;;;;;;;;29.90;67.60;;;;;;5078464;28;19927;-92
2022/08/13 11:09:04;;;;;;;;;;;30.00;66.50;;;;;;5096662;28;19924;-91
2022/08/13 11:11:57;;;;;;;;;;;30.10;66.20;;;;;;5066094;28;19927;-91
2022/08/13 11:14:27;;;;;;;;;;;30.20;64.20;;;;;;5079304;28;19931;-91
2022/08/13 11:17:09;;;;;;;;;;;30.40;65.30;;;;;;5080123;28;19924;-92
2022/08/13 11:19:57;;;;;;;;;;;30.40;66.40;;;;;;5078025;28;20037;-92
2022/08/13 11:22:36;;;;;;;;;;;30.60;66.70;;;;;;5079256;28;20318;-93
2022/08/13 11:25:04;;;;;;;;;;;30.70;67.00;;;;;;5077603;28;19930;-90
2022/08/13 11:27:51;;;;;;;;;;;30.90;67.90;;;;;;5059960;28;19928;-92
2022/08/13 11:30:20;;;;;;;;;;;31.00;67.30;;;;;;5059737;28;19928;-92
2022/08/13 11:33:04;;;;;;;;;;;31.00;67.50;;;;;;5058470;28;19931;-92
2022/08/13 11:35:40;;;;;;;;;;;31.10;67.60;;;;;;5075849;28;19924;-92
2022/08/13 11:38:15;;;;;;;;;;;31.30;67.70;;;;;;5069393;28;19955;-92
2022/08/13 11:40:55;;;;;;;;;;;31.50;68.50;;;;;;5059159;28;19951;-93
2022/08/13 11:43:24;;;;;;;;;;;31.70;67.90;;;;;;5062057;28;19931;-92
2022/08/13 11:46:12;;;;;;;;;;;31.90;66.90;;;;;;5108632;28;20100;-92
2022/08/13 11:48:41;;;;;;;;;;;32.10;67.50;;;;;;5093065;28;19931;-93
2022/08/13 11:51:08;;;;;;;;;;;32.10;67.10;;;;;;5089831;28;20275;-92
2022/08/13 11:53:37;;;;;;;;;;;32.30;66.60;;;;;;5085309;28;19923;-92
2022/08/13 11:56:25;;;;;;;;;;;32.50;64.40;;;;;;5075361;28;19935;-92
2022/08/13 11:58:56;;;;;;;;;;;32.50;64.30;;;;;;5042445;28;20295;-92
2022/08/13 12:01:25;;;;;;;;;;;32.60;63.70;;;;;;5058848;28;20382;-92
2022/08/13 12:04:12;;;;;;;;;;;32.70;61.90;;;;;;5057838;28;20300;-91
2022/08/13 12:06:44;;;;;;;;;;;32.80;61.00;;;;;;5047914;28;20390;-93
2022/08/13 12:09:16;;;;;;;;;;;32.90;60.60;;;;;;5080591;28;20310;-93
2022/08/13 12:12:03;;;;;;;;;;;33.10;60.10;;;;;;5084830;28;19924;-92
2022/08/13 12:14:38;;;;;;;;;;;33.20;59.60;;;;;;5079695;28;19924;-93
2022/08/13 12:17:06;;;;;;;;;;;33.20;57.00;;;;;;5078162;28;19924;-92
2022/08/13 12:19:34;;;;;;;;;;;33.30;57.10;;;;;;5060952;28;19924;-92
2022/08/13 12:22:02;;;;;;;;;;;33.50;58.40;;;;;;5062123;28;19931;-92
2022/08/13 12:24:29;;;;;;;;;;;33.60;57.50;;;;;;5080830;28;19923;-93
2022/08/13 12:27:00;;;;;;;;;;;33.70;55.00;;;;;;5084292;28;19924;-93
2022/08/13 12:29:32;;;;;;;;;;;33.80;55.50;;;;;;5074750;28;19924;-93
2022/08/13 12:32:14;;;;;;;;;;;33.80;55.10;;;;;;5077690;28;20403;-93
2022/08/13 12:34:44;;;;;;;;;;;33.80;55.70;;;;;;5059966;28;20386;-93
2022/08/13 12:37:15;;;;;;;;;;;33.90;56.10;;;;;;5062323;28;20311;-93
2022/08/13 12:39:50;;;;;;;;;;;34.00;57.30;;;;;;5080841;28;20011;-92
2022/08/13 12:42:19;;;;;;;;;;;34.00;56.10;;;;;;5077338;28;19951;-92
2022/08/13 12:44:47;;;;;;;;;;;33.90;55.00;;;;;;5057799;28;19928;-92
2022/08/13 12:47:35;;;;;;;;;;;34.00;56.00;;;;;;5096867;28;19924;-92
2022/08/13 12:50:03;;;;;;;;;;;34.00;54.90;;;;;;5079418;28;19928;-93
2022/08/13 12:52:33;;;;;;;;;;;34.10;53.20;;;;;;5098000;28;19924;-93
2022/08/13 12:55:01;;;;;;;;;;;34.30;54.40;;;;;;5066911;28;19931;-93
2022/08/13 12:57:44;;;;;;;;;;;34.30;51.90;;;;;;5082232;28;19935;-93
2022/08/13 13:00:33;;;;;;;;;;;34.40;51.60;;;;;;5080370;28;20407;-91
2022/08/13 13:03:02;;;;;;;;;;;34.50;51.70;;;;;;5080143;28;20283;-93
2022/08/13 13:05:46;;;;;;;;;;;34.60;51.60;;;;;;5079748;28;19924;-93
2022/08/13 13:08:16;;;;;;;;;;;34.60;50.50;;;;;;5077563;28;19931;-93
2022/08/13 13:10:57;;;;;;;;;;;34.70;51.00;;;;;;5045328;28;20393;-93
2022/08/13 13:13:26;;;;;;;;;;;34.80;51.10;;;;;;5043382;28;19934;-92
2022/08/13 13:16:14;;;;;;;;;;;34.80;51.20;;;;;;5097331;28;19927;-92
2022/08/13 13:18:56;;;;;;;;;;;34.80;51.20;;;;;;5080124;28;19924;-92
2022/08/13 13:21:34;;;;;;;;;;;34.90;50.40;;;;;;5080235;28;19923;-93
2022/08/13 13:24:07;;;;;;;;;;;35.00;50.10;;;;;;5079856;28;20141;-92
2022/08/13 13:26:46;;;;;;;;;;;35.10;49.90;;;;;;5097233;28;19928;-94
2022/08/13 13:29:26;;;;;;;;;;;35.20;50.00;;;;;;5082411;28;19924;-92
2022/08/13 13:32:01;;;;;;;;;;;35.30;50.10;;;;;;5106829;28;19931;-92
2022/08/13 13:34:50;;;;;;;;;;;35.30;49.00;;;;;;5081971;28;19938;-91
2022/08/13 13:37:21;;;;;;;;;;;35.30;49.20;;;;;;5100554;28;19924;-92
2022/08/13 13:39:49;;;;;;;;;;;35.40;48.80;;;;;;5061788;28;20005;-94
2022/08/13 13:42:17;;;;;;;;;;;35.60;48.60;;;;;;5078143;28;19947;-93
2022/08/13 13:44:57;;;;;;;;;;;35.80;50.00;;;;;;5087433;28;19928;-92
2022/08/13 13:47:24;;;;;;;;;;;36.00;47.20;;;;;;5041972;28;19928;-93
2022/08/13 13:49:59;;;;;;;;;;;36.10;47.50;;;;;;5056902;28;19943;-93
2022/08/13 13:52:29;;;;;;;;;;;36.20;47.00;;;;;;5060883;28;20299;-93
2022/08/13 13:54:57;;;;;;;;;;;36.30;47.30;;;;;;5054170;28;19924;-92
2022/08/13 13:57:25;;;;;;;;;;;36.50;46.70;;;;;;5090204;28;19939;-92
2022/08/13 14:00:08;;;;;;;;;;;36.80;47.40;;;;;;5073241;28;19924;-92
2022/08/13 14:02:45;;;;;;;;;;;37.10;47.60;;;;;;5042590;28;19924;-90
2022/08/13 14:05:14;;;;;;;;;;;37.20;46.60;;;;;;5056640;28;20104;-92
2022/08/13 14:07:54;;;;;;;;;;;37.40;45.80;;;;;;5078503;28;20374;-91
2022/08/13 14:10:23;;;;;;;;;;;37.70;46.80;;;;;;5085836;28;19924;-90
2022/08/13 14:12:51;;;;;;;;;;;38.00;45.80;;;;;;5093171;28;19924;-90
2022/08/13 14:15:42;;;;;;;;;;;38.20;46.60;;;;;;5043733;28;19924;-90
2022/08/13 14:18:13;;;;;;;;;;;38.30;44.90;;;;;;5057549;28;19931;-89
2022/08/13 14:20:53;;;;;;;;;;;38.40;45.40;;;;;;5074123;28;19924;-90
2022/08/13 14:23:25;;;;;;;;;;;38.50;45.50;;;;;;5041817;28;19931;-91
2022/08/13 14:26:11;;;;;;;;;;;38.60;44.30;;;;;;5084882;28;19934;-91
2022/08/13 14:28:42;;;;;;;;;;;38.70;44.30;;;;;;5077331;28;19935;-90
2022/08/13 14:31:14;;;;;;;;;;;38.80;43.80;;;;;;5083140;28;19962;-88
2022/08/13 14:33:43;;;;;;;;;;;38.90;44.80;;;;;;5106872;28;19924;-91
2022/08/13 14:36:28;;;;;;;;;;;39.00;44.60;;;;;;5083329;28;19931;-90
2022/08/13 14:39:04;;;;;;;;;;;39.20;44.00;;;;;;5082595;28;19924;-93
2022/08/13 14:41:37;;;;;;;;;;;39.50;44.40;;;;;;5079135;28;20354;-91
2022/08/13 14:44:10;;;;;;;;;;;39.60;43.70;;;;;;5058247;28;19935;-90
2022/08/13 14:46:57;;;;;;;;;;;39.70;44.20;;;;;;5057298;28;19928;-91
2022/08/13 14:49:25;;;;;;;;;;;39.80;43.80;;;;;;5056607;28;19924;-90
2022/08/13 14:52:14;;;;;;;;;;;40.00;43.50;;;;;;5062195;28;19935;-90
2022/08/13 14:54:47;;;;;;;;;;;40.10;42.50;;;;;;5040818;28;19935;-89
2022/08/13 14:57:18;;;;;;;;;;;40.10;43.20;;;;;;5057672;28;19927;-91
2022/08/13 15:00:07;;;;;;;;;;;40.20;42.60;;;;;;5094583;28;19931;-91
2022/08/13 15:02:37;;;;;;;;;;;40.40;42.20;;;;;;5077881;28;19951;-91
2022/08/13 15:05:26;;;;;;;;;;;40.50;42.20;;;;;;5077068;28;20457;-92
2022/08/13 15:08:15;;;;;;;;;;;40.30;42.60;;;;;;5077780;28;19938;-91
2022/08/13 15:11:02;;;;;;;;;;;40.30;42.30;;;;;;5071998;28;19928;-92
2022/08/13 15:13:45;;;;;;;;;;;40.30;42.30;;;;;;5057223;28;19932;-90
2022/08/13 15:16:24;;;;;;;;;;;40.40;42.70;;;;;;5074279;28;19935;-92
2022/08/13 15:18:59;;;;;;;;;;;40.50;41.60;;;;;;5057871;28;20394;-92
2022/08/13 15:21:36;;;;;;;;;;;40.80;41.90;;;;;;5074746;28;19924;-91
2022/08/13 15:24:28;;;;;;;;;;;41.00;41.90;;;;;;5078500;28;19924;-91
2022/08/13 15:27:29;;;;;;;;;;;41.10;41.30;;;;;;5063516;28;20052;-91
2022/08/13 15:30:13;;;;;;;;;;;41.20;40.90;;;;;;5082853;28;19939;-90
2022/08/13 15:32:43;;;;;;;;;;;41.40;41.40;;;;;;5078068;28;19924;-90
2022/08/13 15:35:31;;;;;;;;;;;41.70;41.20;;;;;;5099356;28;19924;-90